Time,TemperatureF,DewpointF,PressureIn,WindDirection,WindDirectionDegrees,WindSpeedMPH,WindSpeedGustMPH,Humidity,HourlyPrecipIn,Conditions,Clouds,dailyrainin,SoftwareType,DateUTC
2013-02-14 00:03:00,25.7,8.0,30.09,NNW,328,1.0,18.0,47,0.00,,,0.00,weatherlink.com 1.10,2013-02-14 07:03:00,
2013-02-14 00:18:00,25.6,7.0,30.09,West,262,4.0,12.0,45,0.00,,,0.00,weatherlink.com 1.10,2013-02-14 07:18:00,
2013-02-14 00:33:00,26.0,7.0,30.10,East,94,2.0,10.0,44,0.00,,,0.00,weatherlink.com 1.10,2013-02-14 07:33:00,
2013-02-14 00:48:00,25.4,6.0,30.10,South,185,1.0,5.0,44,0.00,,,0.00,weatherlink.com 1.10,2013-02-14 07:48:00,
2013-02-14 01:03:00,25.7,6.0,30.09,SSW,200,0.0,12.0,44,0.00,,,0.00,weatherlink.com 1.10,2013-02-14 08:03:00,
2013-02-14 01:18:00,24.5,7.0,30.12,South,174,0.0,5.0,47,0.00,,,0.00,weatherlink.com 1.10,2013-02-14 08:18:00,
2013-02-14 01:33:00,22.7,8.0,30.11,SSE,165,1.0,3.0,53,0.00,,,0.00,weatherlink.com 1.10,2013-02-14 08:33:00,
2013-02-14 01:48:00,21.2,8.0,30.10,SE,134,0.0,3.0,56,0.00,,,0.00,weatherlink.com 1.10,2013-02-14 08:48:00,
2013-02-14 02:03:00,20.5,8.0,30.11,SSE,153,0.0,2.0,58,0.00,,,0.00,weatherlink.com 1.10,2013-02-14 09:03:00,
2013-02-14 02:18:00,21.5,8.0,30.10,SW,218,2.0,4.0,55,0.00,,,0.00,weatherlink.com 1.10,2013-02-14 09:18:00,
2013-02-14 02:33:00,22.5,6.0,30.09,WNW,298,1.0,6.0,49,0.00,,,0.00,weatherlink.com 1.10,2013-02-14 09:33:00,
2013-02-14 02:48:00,21.7,6.0,30.07,South,175,4.0,12.0,51,0.00,,,0.00,weatherlink.com 1.10,2013-02-14 09:48:00,
2013-02-14 03:03:00,24.3,6.0,30.07,ESE,102,1.0,11.0,46,0.00,,,0.00,weatherlink.com 1.10,2013-02-14 10:03:00,
2013-02-14 03:18:00,23.9,6.0,30.07,ESE,119,2.0,7.0,47,0.00,,,0.00,weatherlink.com 1.10,2013-02-14 10:18:00,
2013-02-14 03:34:00,23.5,5.0,30.05,SSE,167,2.0,5.0,46,0.00,,,0.00,weatherlink.com 1.10,2013-02-14 10:34:00,
2013-02-14 03:49:00,22.1,7.0,30.06,SE,127,0.0,3.0,52,0.00,,,0.00,weatherlink.com 1.10,2013-02-14 10:49:00,
2013-02-14 04:04:00,21.8,7.0,30.05,ESE,110,0.0,4.0,53,0.00,,,0.00,weatherlink.com 1.10,2013-02-14 11:04:00,
2013-02-14 04:19:00,21.4,7.0,30.06,SE,129,0.0,5.0,54,0.00,,,0.00,weatherlink.com 1.10,2013-02-14 11:19:00,
2013-02-14 04:34:00,21.9,6.0,30.08,ESE,110,5.0,7.0,50,0.00,,,0.00,weatherlink.com 1.10,2013-02-14 11:34:00,
2013-02-14 04:49:00,21.5,8.0,30.07,ESE,117,4.0,7.0,55,0.00,,,0.00,weatherlink.com 1.10,2013-02-14 11:49:00,
2013-02-14 05:04:00,22.5,6.0,30.08,SW,217,4.0,18.0,50,0.00,,,0.00,weatherlink.com 1.10,2013-02-14 12:04:00,
2013-02-14 05:19:00,23.7,5.0,30.07,SSE,158,3.0,7.0,45,0.00,,,0.00,weatherlink.com 1.10,2013-02-14 12:19:00,
2013-02-14 05:34:00,23.7,7.0,30.07,SSE,168,3.0,7.0,48,0.00,,,0.00,weatherlink.com 1.10,2013-02-14 12:34:00,
2013-02-14 05:49:00,24.1,5.0,30.07,SSE,166,4.0,9.0,44,0.00,,,0.00,weatherlink.com 1.10,2013-02-14 12:49:00,
2013-02-14 06:04:00,24.0,5.0,30.07,SSW,193,1.0,9.0,45,0.00,,,0.00,weatherlink.com 1.10,2013-02-14 13:04:00,
2013-02-14 06:19:00,23.9,5.0,30.08,SSW,213,2.0,10.0,45,0.00,,,0.00,weatherlink.com 1.10,2013-02-14 13:19:00,
2013-02-14 06:34:00,24.3,5.0,30.08,SW,229,2.0,14.0,43,0.00,,,0.00,weatherlink.com 1.10,2013-02-14 13:34:00,
2013-02-14 06:49:00,24.0,5.0,30.08,SE,137,1.0,7.0,44,0.00,,,0.00,weatherlink.com 1.10,2013-02-14 13:49:00,
2013-02-14 07:04:00,23.8,5.0,30.10,West,281,0.0,9.0,44,0.00,,,0.00,weatherlink.com 1.10,2013-02-14 14:04:00,
2013-02-14 07:19:00,23.5,6.0,30.11,WSW,243,0.0,7.0,47,0.00,,,0.00,weatherlink.com 1.10,2013-02-14 14:19:00,
2013-02-14 07:34:00,22.6,5.0,30.12,SSW,205,0.0,1.0,47,0.00,,,0.00,weatherlink.com 1.10,2013-02-14 14:34:00,
2013-02-14 07:49:00,21.7,7.0,30.13,West,280,0.0,4.0,53,0.00,,,0.00,weatherlink.com 1.10,2013-02-14 14:49:00,
2013-02-14 08:04:00,21.0,7.0,30.13,WSW,255,0.0,3.0,54,0.00,,,0.00,weatherlink.com 1.10,2013-02-14 15:04:00,
2013-02-14 08:19:00,24.3,4.0,30.12,West,264,1.0,4.0,41,0.00,,,0.00,weatherlink.com 1.10,2013-02-14 15:19:00,
2013-02-14 08:34:00,27.8,3.0,30.12,South,184,0.0,5.0,35,0.00,,,0.00,weatherlink.com 1.10,2013-02-14 15:34:00,
2013-02-14 08:49:00,29.7,2.0,30.12,NW,307,3.0,7.0,30,0.00,,,0.00,weatherlink.com 1.10,2013-02-14 15:49:00,
2013-02-14 09:04:00,30.9,4.0,30.13,WSW,238,4.0,5.0,32,0.00,,,0.00,weatherlink.com 1.10,2013-02-14 16:04:00,
2013-02-14 09:19:00,30.7,4.0,30.15,SSW,208,0.0,7.0,32,0.00,,,0.00,weatherlink.com 1.10,2013-02-14 16:19:00,
2013-02-14 09:34:00,28.6,4.0,30.16,SW,226,1.0,7.0,35,0.00,,,0.00,weatherlink.com 1.10,2013-02-14 16:34:00,
2013-02-14 09:49:00,27.3,5.0,30.16,North,1,4.0,6.0,39,0.00,,,0.00,weatherlink.com 1.10,2013-02-14 16:49:00,
2013-02-14 10:04:00,27.0,6.0,30.16,NE,56,4.0,8.0,41,0.00,,,0.00,weatherlink.com 1.10,2013-02-14 17:04:00,
2013-02-14 10:19:00,28.5,6.0,30.16,NW,324,2.0,7.0,39,0.00,,,0.00,weatherlink.com 1.10,2013-02-14 17:19:00,
2013-02-14 10:34:00,26.9,10.0,30.17,ENE,70,2.0,8.0,50,0.00,,,0.00,weatherlink.com 1.10,2013-02-14 17:34:00,
2013-02-14 10:49:00,24.3,14.0,30.18,NW,326,1.0,7.0,64,0.00,,,0.00,weatherlink.com 1.10,2013-02-14 17:49:00,
2013-02-14 11:04:00,26.1,16.0,30.20,NW,311,4.0,5.0,65,0.00,,,0.00,weatherlink.com 1.10,2013-02-14 18:04:00,
2013-02-14 11:19:00,24.4,15.0,30.20,East,95,0.0,6.0,68,0.00,,,0.00,weatherlink.com 1.10,2013-02-14 18:19:00,
2013-02-14 11:34:00,23.2,16.0,30.20,SE,141,0.0,4.0,75,0.00,,,0.00,weatherlink.com 1.10,2013-02-14 18:34:00,
2013-02-14 11:49:00,21.7,16.0,30.20,SSE,168,1.0,2.0,80,0.00,,,0.00,weatherlink.com 1.10,2013-02-14 18:49:00,
2013-02-14 12:04:00,20.4,15.0,30.21,North,351,0.0,5.0,80,0.00,,,0.00,weatherlink.com 1.10,2013-02-14 19:04:00,
2013-02-14 12:19:00,21.7,16.0,30.20,ESE,114,2.0,2.0,79,0.00,,,0.00,weatherlink.com 1.10,2013-02-14 19:19:00,
2013-02-14 12:34:00,22.1,15.0,30.20,East,92,1.0,6.0,74,0.00,,,0.00,weatherlink.com 1.10,2013-02-14 19:34:00,
2013-02-14 12:49:00,21.1,14.0,30.21,North,360,0.0,7.0,74,0.00,,,0.00,weatherlink.com 1.10,2013-02-14 19:49:00,
2013-02-14 13:04:00,20.0,13.0,30.21,ENE,59,0.0,3.0,75,0.00,,,0.00,weatherlink.com 1.10,2013-02-14 20:04:00,
2013-02-14 13:19:00,19.5,13.0,30.22,SE,127,0.0,3.0,75,0.00,,,0.00,weatherlink.com 1.10,2013-02-14 20:19:00,
2013-02-14 13:35:00,18.9,12.0,30.23,East,82,2.0,4.0,75,0.00,,,0.00,weatherlink.com 1.10,2013-02-14 20:35:00,
2013-02-14 13:50:00,18.4,12.0,30.23,SSE,167,0.0,4.0,77,0.00,,,0.00,weatherlink.com 1.10,2013-02-14 20:50:00,
2013-02-14 14:05:00,17.8,12.0,30.24,West,279,0.0,3.0,77,0.00,,,0.00,weatherlink.com 1.10,2013-02-14 21:05:00,
2013-02-14 14:20:00,17.8,12.0,30.25,SSW,198,0.0,3.0,78,0.00,,,0.00,weatherlink.com 1.10,2013-02-14 21:20:00,
2013-02-14 14:35:00,17.7,12.0,30.26,ENE,70,0.0,2.0,78,0.00,,,0.00,weatherlink.com 1.10,2013-02-14 21:35:00,
2013-02-14 14:50:00,17.4,11.0,30.25,ESE,117,2.0,3.0,77,0.00,,,0.00,weatherlink.com 1.10,2013-02-14 21:50:00,
2013-02-14 15:05:00,16.8,12.0,30.26,NW,323,0.0,3.0,80,0.00,,,0.00,weatherlink.com 1.10,2013-02-14 22:05:00,
2013-02-14 15:20:00,16.5,11.0,30.27,NE,48,0.0,2.0,79,0.00,,,0.00,weatherlink.com 1.10,2013-02-14 22:20:00,
2013-02-14 15:35:00,15.7,11.0,30.28,NNW,327,0.0,2.0,80,0.00,,,0.00,weatherlink.com 1.10,2013-02-14 22:35:00,
2013-02-14 15:50:00,15.2,10.0,30.29,WSW,253,0.0,2.0,81,0.00,,,0.00,weatherlink.com 1.10,2013-02-14 22:50:00,
2013-02-14 16:05:00,15.3,11.0,30.29,South,183,0.0,1.0,82,0.00,,,0.00,weatherlink.com 1.10,2013-02-14 23:05:00,
2013-02-14 16:20:00,15.5,11.0,30.30,SSW,192,0.0,0.0,81,0.00,,,0.00,weatherlink.com 1.10,2013-02-14 23:20:00,
2013-02-14 16:35:00,15.1,10.0,30.30,SSW,197,0.0,0.0,81,0.00,,,0.00,weatherlink.com 1.10,2013-02-14 23:35:00,
2013-02-14 16:50:00,14.2,10.0,30.31,WNW,303,0.0,1.0,83,0.00,,,0.00,weatherlink.com 1.10,2013-02-14 23:50:00,
2013-02-14 17:05:00,13.7,10.0,30.31,WNW,301,0.0,1.0,84,0.00,,,0.00,weatherlink.com 1.10,2013-02-15 00:05:00,
2013-02-14 17:20:00,13.4,9.0,30.31,WNW,300,0.0,1.0,84,0.00,,,0.00,weatherlink.com 1.10,2013-02-15 00:20:00,
2013-02-14 17:35:00,12.7,9.0,30.31,West,270,0.0,1.0,84,0.00,,,0.00,weatherlink.com 1.10,2013-02-15 00:35:00,
2013-02-14 17:50:00,12.3,9.0,30.32,West,270,0.0,0.0,85,0.00,,,0.00,weatherlink.com 1.10,2013-02-15 00:50:00,
2013-02-14 18:05:00,12.2,9.0,30.32,West,259,0.0,1.0,86,0.00,,,0.00,weatherlink.com 1.10,2013-02-15 01:05:00,
2013-02-14 18:20:00,12.1,9.0,30.33,ESE,110,0.0,1.0,85,0.00,,,0.00,weatherlink.com 1.10,2013-02-15 01:20:00,
2013-02-14 18:35:00,11.7,8.0,30.34,SE,131,0.0,1.0,85,0.00,,,0.00,weatherlink.com 1.10,2013-02-15 01:35:00,
2013-02-14 18:50:00,11.3,8.0,30.34,SSW,196,0.0,0.0,85,0.00,,,0.00,weatherlink.com 1.10,2013-02-15 01:50:00,
2013-02-14 19:05:00,10.9,8.0,30.35,SSW,197,0.0,0.0,86,0.00,,,0.00,weatherlink.com 1.10,2013-02-15 02:05:00,
2013-02-14 19:20:00,10.3,7.0,30.36,SSW,197,0.0,0.0,86,0.00,,,0.00,weatherlink.com 1.10,2013-02-15 02:20:00,
2013-02-14 19:35:00,9.5,6.0,30.36,SSW,197,0.0,0.0,85,0.00,,,0.00,weatherlink.com 1.10,2013-02-15 02:35:00,
2013-02-14 19:50:00,8.5,5.0,30.36,SSW,197,0.0,0.0,85,0.00,,,0.00,weatherlink.com 1.10,2013-02-15 02:50:00,
2013-02-14 20:06:00,7.4,4.0,30.37,WSW,242,0.0,0.0,85,0.00,,,0.00,weatherlink.com 1.10,2013-02-15 03:06:00,
2013-02-14 20:21:00,6.9,4.0,30.37,WSW,242,0.0,0.0,86,0.00,,,0.00,weatherlink.com 1.10,2013-02-15 03:21:00,
2013-02-14 20:37:00,7.0,4.0,30.37,WSW,242,0.0,0.0,86,0.00,,,0.00,weatherlink.com 1.10,2013-02-15 03:37:00,
2013-02-14 20:51:00,7.0,4.0,30.37,WSW,242,0.0,0.0,86,0.00,,,0.00,weatherlink.com 1.10,2013-02-15 03:51:00,
2013-02-14 21:06:00,6.9,4.0,30.37,West,272,0.0,0.0,86,0.00,,,0.00,weatherlink.com 1.10,2013-02-15 04:06:00,
2013-02-14 21:21:00,7.0,4.0,30.37,West,272,0.0,0.0,87,0.00,,,0.00,weatherlink.com 1.10,2013-02-15 04:21:00,
2013-02-14 21:36:00,7.2,4.0,30.36,West,269,0.0,0.0,87,0.00,,,0.00,weatherlink.com 1.10,2013-02-15 04:36:00,
2013-02-14 21:51:00,7.1,4.0,30.36,West,267,0.0,1.0,86,0.00,,,0.00,weatherlink.com 1.10,2013-02-15 04:51:00,
2013-02-14 22:06:00,7.0,4.0,30.36,West,266,0.0,0.0,86,0.00,,,0.00,weatherlink.com 1.10,2013-02-15 05:06:00,
2013-02-14 22:21:00,6.9,4.0,30.37,WSW,245,0.0,0.0,86,0.00,,,0.00,weatherlink.com 1.10,2013-02-15 05:21:00,
2013-02-14 22:36:00,6.9,4.0,30.37,WSW,247,0.0,1.0,86,0.00,,,0.00,weatherlink.com 1.10,2013-02-15 05:36:00,
2013-02-14 22:51:00,6.7,3.0,30.38,WSW,250,0.0,0.0,86,0.00,,,0.00,weatherlink.com 1.10,2013-02-15 05:51:00,
2013-02-14 23:06:00,6.4,3.0,30.38,WSW,250,0.0,0.0,86,0.00,,,0.00,weatherlink.com 1.10,2013-02-15 06:06:00,
2013-02-14 23:21:00,6.2,3.0,30.38,WSW,250,0.0,0.0,86,0.00,,,0.00,weatherlink.com 1.10,2013-02-15 06:21:00,
2013-02-14 23:36:00,5.9,2.0,30.39,WSW,250,0.0,0.0,85,0.00,,,0.00,weatherlink.com 1.10,2013-02-15 06:36:00,
2013-02-14 23:51:00,5.0,2.0,30.39,West,259,0.0,0.0,85,0.00,,,0.00,weatherlink.com 1.10,2013-02-15 06:51:00,